.
WxDataArchive / Data Records for 2006-10-02
2006-10-01 October 2006 2006-10-03

Data Records for Monday, 02 October 2006

Time	Temp	Chill	HIndex	Humid	Dewpt	 Wind 	HiWind	WindDir	Rain 	Barom 
-----	----	-----	------	-----	-----	------	------	-------	-----	----- 
00:00	50.2	50.2	50.2	93	48.3	0	0	---	0.00	30.077 
00:05	50.1	50.1	50.1	93	48.2	0	0	---	0.00	30.077 
00:10	50.1	50.1	50.1	93	48.2	0	0	---	0.00	30.077 
00:15	49.9	49.9	49.9	93	48.0	0	0	---	0.00	30.075 
00:20	49.8	49.8	49.8	94	48.1	0	0	---	0.00	30.075 
00:25	49.8	49.8	49.8	94	48.1	0	0	---	0.00	30.075 
00:30	49.8	49.8	49.8	94	48.1	0	0	---	0.00	30.075 
00:35	49.8	49.8	49.8	94	48.1	0	0	---	0.00	30.075 
00:40	49.6	49.6	49.6	94	47.9	0	0	---	0.00	30.075 
00:45	49.6	49.6	49.6	94	47.9	0	0	---	0.00	30.076 
00:50	49.6	49.6	49.6	94	47.9	0	0	---	0.00	30.076 
00:55	49.6	49.6	49.6	95	48.2	0	0	---	0.00	30.076 
01:00	49.8	49.8	49.8	95	48.4	0	0	---	0.00	30.076 
01:05	49.9	49.9	49.9	95	48.5	0	0	---	0.00	30.076 
01:10	50.1	50.1	50.1	95	48.7	0	0	---	0.00	30.076 
01:15	50.1	50.1	50.1	95	48.7	0	0	---	0.00	30.077 
01:20	50.2	50.2	50.2	95	48.8	0	0	---	0.00	30.077 
01:25	50.4	50.4	50.4	95	49.0	0	0	---	0.00	30.077 
01:30	50.7	50.7	50.7	96	49.6	0	0	---	0.00	30.075 
01:35	51.0	51.0	51.0	96	49.9	0	0	---	0.00	30.075 
01:40	51.1	51.1	51.1	96	50.0	0	0	---	0.00	30.075 
01:45	51.3	51.3	51.3	95	49.9	0	0	---	0.00	30.074 
01:50	51.1	51.1	51.1	95	49.7	0	0	---	0.00	30.074 
01:55	51.1	51.1	51.1	95	49.7	0	0	---	0.00	30.074 
02:00	51.0	51.0	51.0	94	49.3	0	0	---	0.00	30.074 
02:05	50.8	50.8	50.8	94	49.1	0	0	---	0.00	30.074 
02:10	50.8	50.8	50.8	94	49.1	0	0	---	0.00	30.074 
02:15	50.7	50.7	50.7	93	48.7	0	0	---	0.00	30.073 
02:20	50.5	50.5	50.5	93	48.6	0	0	---	0.00	30.073 
02:25	50.5	50.5	50.5	93	48.6	0	0	---	0.00	30.073 
02:30	50.4	50.4	50.4	93	48.5	0	0	---	0.00	30.073 
02:35	50.2	50.2	50.2	93	48.3	0	0	---	0.00	30.073 
02:40	50.1	50.1	50.1	93	48.2	0	0	---	0.00	30.073 
02:45	50.1	50.1	50.1	93	48.2	0	0	---	0.00	30.076 
02:50	50.1	50.1	50.1	93	48.2	0	1	315	0.00	30.076 
02:55	50.1	50.1	50.1	93	48.2	0	1	315	0.00	30.076 
03:00	50.1	50.1	50.1	93	48.2	0	0	---	0.00	30.073 
03:05	50.1	50.1	50.1	93	48.2	0	0	---	0.00	30.073 
03:10	49.9	49.9	49.9	93	48.0	0	0	---	0.00	30.073 
03:15	49.9	49.9	49.9	93	48.0	0	0	---	0.00	30.072 
03:20	49.9	49.9	49.9	93	48.0	0	0	---	0.00	30.072 
03:25	49.9	49.9	49.9	93	48.0	0	0	---	0.00	30.072 
03:30	49.9	49.9	49.9	93	48.0	0	0	---	0.00	30.062 
03:35	49.9	49.9	49.9	93	48.0	0	0	---	0.00	30.062 
03:40	49.9	49.9	49.9	93	48.0	0	0	---	0.00	30.062 
03:45	50.1	50.1	50.1	93	48.2	0	0	---	0.00	30.067 
03:50	50.2	50.2	50.2	93	48.3	0	0	---	0.00	30.067 
03:55	50.5	50.5	50.5	93	48.6	0	1	315	0.00	30.067 
04:00	50.8	50.8	50.8	92	48.6	0	0	---	0.00	30.060 
04:05	51.3	51.3	51.3	91	48.8	0	0	---	0.00	30.060 
04:10	51.9	51.9	51.9	90	49.1	0	1	315	0.00	30.060 
04:15	52.3	52.3	52.3	88	48.9	0	0	---	0.00	30.083 
04:20	52.6	52.6	52.6	88	49.1	0	0	---	0.00	30.083 
04:25	52.8	52.8	52.8	87	49.0	0	1	315	0.00	30.083 
04:30	52.9	52.9	52.9	87	49.1	0	0	---	0.00	30.079 
04:35	53.1	53.1	53.1	88	49.6	0	0	---	0.00	30.079 
04:40	53.1	53.1	53.1	87	49.3	0	0	---	0.00	30.079 
04:45	53.1	53.1	53.1	87	49.3	0	0	---	0.00	30.082 
04:50	53.1	53.1	53.1	87	49.3	0	0	---	0.00	30.082 
04:55	53.2	53.2	53.2	87	49.4	0	0	---	0.00	30.082 
05:00	53.3	53.3	53.3	87	49.5	0	0	---	0.00	30.075 
05:05	53.3	53.3	53.3	87	49.5	0	0	---	0.00	30.075 
05:10	53.5	53.5	53.5	87	49.7	0	1	315	0.00	30.075 
05:15	53.6	53.6	53.6	87	49.8	0	1	315	0.00	30.074 
05:20	53.6	53.6	53.6	86	49.5	0	0	---	0.00	30.074 
05:25	53.6	53.6	53.6	86	49.5	0	0	---	0.00	30.074 
05:30	53.6	53.6	53.6	86	49.5	0	0	---	0.00	30.066 
05:35	53.8	53.8	53.8	86	49.7	0	1	315	0.00	30.066 
05:40	53.8	53.8	53.8	86	49.7	0	1	315	0.00	30.066 
05:45	53.9	53.9	53.9	87	50.1	0	1	315	0.00	30.071 
05:50	54.1	54.1	54.1	86	50.0	0	1	315	0.00	30.071 
05:55	54.5	54.5	54.5	86	50.4	0	1	315	0.00	30.071 
06:00	54.7	54.7	54.7	86	50.6	0	0	---	0.00	30.070 
06:05	55.0	55.0	55.0	85	50.6	0	1	315	0.00	30.070 
06:10	55.1	55.1	55.1	86	51.0	0	2	248	0.00	30.070 
06:15	55.6	55.6	55.6	84	50.8	2	4	248	0.00	30.067 
06:20	56.0	56.0	56.0	84	51.2	1	4	248	0.00	30.067 
06:25	56.3	56.3	56.3	84	51.5	1	3	248	0.00	30.067 
06:30	56.6	56.6	56.6	83	51.5	0	1	248	0.00	30.087 
06:35	56.6	56.6	56.6	83	51.5	0	0	---	0.00	30.087 
06:40	56.6	56.6	56.6	84	51.8	0	1	248	0.00	30.087 
06:45	56.6	56.6	56.6	84	51.8	0	0	---	0.00	30.086 
06:50	56.5	56.5	56.5	84	51.7	0	0	---	0.00	30.086 
06:55	56.5	56.5	56.5	84	51.7	0	0	---	0.00	30.086 
07:00	56.3	56.3	56.3	85	51.8	0	0	---	0.00	30.088 
07:05	56.3	56.3	56.3	85	51.8	0	0	---	0.00	30.088 
07:10	56.2	56.2	56.2	85	51.7	0	0	---	0.00	30.088 
07:15	56.2	56.2	56.2	85	51.7	0	0	---	0.00	30.093 
07:20	56.0	56.0	56.0	85	51.6	0	0	---	0.00	30.093 
07:25	55.9	55.9	55.9	85	51.5	0	0	---	0.00	30.093 
07:30	55.7	55.7	55.7	86	51.6	0	0	---	0.00	30.093 
07:35	55.4	55.4	55.4	86	51.3	0	0	---	0.00	30.093 
07:40	55.1	55.1	55.1	87	51.3	0	0	---	0.00	30.093 
07:45	54.8	54.8	54.8	88	51.3	0	0	---	0.00	30.093 
07:50	54.7	54.7	54.7	88	51.2	0	0	---	0.00	30.093 
07:55	54.5	54.5	54.5	88	51.0	0	0	---	0.00	30.093 
08:00	54.5	54.5	54.5	89	51.3	0	0	---	0.00	30.090 
08:05	54.4	54.4	54.4	89	51.2	0	0	---	0.00	30.090 
08:10	54.4	54.4	54.4	90	51.5	0	0	---	0.00	30.090 
08:15	54.4	54.4	54.4	90	51.5	0	0	---	0.00	30.099 
08:20	54.5	54.5	54.5	91	51.9	0	0	---	0.00	30.099 
08:25	54.5	54.5	54.5	91	51.9	0	0	---	0.00	30.099 
08:30	54.8	54.8	54.8	92	52.5	0	0	---	0.00	30.100 
08:35	55.0	55.0	55.0	91	52.4	0	0	---	0.00	30.100 
08:40	55.1	55.1	55.1	92	52.8	0	0	---	0.00	30.100 
08:45	55.1	55.1	55.1	91	52.5	0	0	---	0.00	30.107 
08:50	55.4	55.4	55.4	91	52.8	0	1	248	0.00	30.107 
08:55	55.7	55.7	55.7	90	52.8	0	1	248	0.00	30.107 
09:00	56.2	56.2	56.2	88	52.7	0	2	248	0.00	30.101 
09:05	56.6	56.6	56.6	88	53.1	0	2	248	0.00	30.101 
09:10	56.9	56.9	56.9	88	53.4	0	1	248	0.00	30.101 
09:15	57.2	57.2	57.2	87	53.4	0	1	248	0.00	30.103 
09:20	57.3	57.3	57.3	86	53.1	0	2	248	0.00	30.103 
09:25	57.3	57.3	57.3	86	53.1	1	2	112	0.00	30.103 
09:30	57.5	57.5	57.5	86	53.3	0	2	112	0.00	30.100 
09:35	57.5	57.5	57.5	86	53.3	0	1	112	0.00	30.100 
09:40	57.6	57.6	57.6	86	53.4	0	1	112	0.00	30.100 
09:45	57.8	57.8	57.8	86	53.6	0	1	112	0.00	30.114 
09:50	58.0	58.0	58.0	86	53.8	0	2	112	0.00	30.114 
09:55	58.3	58.3	58.3	86	54.1	0	1	112	0.00	30.114 
10:00	58.4	58.4	58.4	87	54.5	0	2	45	0.00	30.144 
10:05	58.3	58.3	58.3	84	53.5	2	7	315	0.00	30.144 
10:10	58.4	58.4	58.4	84	53.6	2	5	90	0.00	30.144 
10:15	58.7	58.7	58.7	84	53.9	0	2	90	0.00	30.144 
10:20	58.9	58.9	58.9	84	54.1	0	1	90	0.00	30.144 
10:25	59.3	59.3	59.3	82	53.8	1	7	338	0.00	30.144 
10:30	59.3	59.3	59.3	82	53.8	1	6	112	0.00	30.176 
10:35	59.6	59.6	59.6	81	53.8	4	12	112	0.00	30.176 
10:40	59.8	59.8	59.8	82	54.3	1	4	68	0.00	30.176 
10:45	59.9	59.9	59.9	84	55.0	2	7	22	0.00	30.203 
10:50	59.8	59.8	59.8	85	55.3	1	9	90	0.01	30.203 
10:55	59.2	59.2	59.2	88	55.6	1	4	315	0.01	30.203 
11:00	58.6	58.6	58.6	89	55.4	1	2	0	0.02	30.217 
11:05	58.3	58.3	58.3	91	55.7	0	2	0	0.06	30.217 
11:10	57.8	57.8	57.8	91	55.2	0	1	338	0.04	30.217 
11:15	57.6	57.6	57.6	92	55.3	0	1	338	0.03	30.206 
11:20	57.5	57.5	57.5	93	55.5	0	1	338	0.01	30.206 
11:25	57.3	57.3	57.3	93	55.3	0	0	---	0.03	30.206 
11:30	57.3	57.3	57.3	94	55.6	0	1	338	0.02	30.196 
11:35	57.2	57.2	57.2	94	55.5	0	2	22	0.01	30.196 
11:40	57.2	57.2	57.2	94	55.5	0	2	22	0.01	30.196 
11:45	57.2	57.2	57.2	94	55.5	0	2	22	0.00	30.176 
11:50	57.2	57.2	57.2	94	55.5	1	2	112	0.02	30.176 
11:55	57.2	57.2	57.2	95	55.8	0	1	112	0.00	30.176 
12:00	57.2	57.2	57.2	95	55.8	0	2	112	0.00	30.164 
12:05	57.3	57.3	57.3	95	55.9	0	0	---	0.00	30.164 
12:10	57.3	57.3	57.3	95	55.9	0	1	112	0.02	30.164 
12:15	57.3	57.3	57.3	95	55.9	0	2	112	0.01	30.161 
12:20	57.3	57.3	57.3	95	55.9	0	1	112	0.00	30.161 
12:25	57.5	57.5	57.5	95	56.1	0	1	112	0.00	30.161 
12:30	57.5	57.5	57.5	96	56.4	1	3	112	0.00	30.165 
12:35	57.6	57.6	57.6	96	56.5	1	2	112	0.00	30.165 
12:40	57.8	57.8	57.8	96	56.7	0	0	---	0.00	30.165 
12:45	57.8	57.8	57.8	96	56.7	0	1	112	0.00	30.174 
12:50	57.8	57.8	57.8	96	56.7	0	0	---	0.00	30.174 
12:55	57.8	57.8	57.8	96	56.7	0	0	---	0.01	30.174 
13:00	57.8	57.8	57.8	96	56.7	0	1	112	0.02	30.206 
13:05	57.6	57.6	57.6	96	56.5	0	2	112	0.02	30.206 
13:10	57.6	57.6	57.6	96	56.5	0	1	112	0.01	30.206 
13:15	57.8	57.8	57.8	96	56.7	1	2	112	0.02	30.186 
13:20	58.1	58.1	58.1	96	57.0	0	1	112	0.00	30.186 
13:25	58.3	58.3	58.3	96	57.2	0	2	112	0.00	30.186 
13:30	58.4	58.4	58.4	96	57.3	0	2	112	0.00	30.192 
13:35	58.6	58.6	58.6	96	57.5	0	2	112	0.00	30.192 
13:40	58.6	58.6	58.6	96	57.5	0	1	112	0.00	30.192 
13:45	58.6	58.6	58.6	96	57.5	1	3	112	0.01	30.163 
13:50	58.6	58.6	58.6	96	57.5	0	2	112	0.00	30.163 
13:55	58.6	58.6	58.6	96	57.5	0	2	112	0.00	30.163 
14:00	58.6	58.6	58.6	96	57.5	0	2	112	0.00	30.164 
14:05	58.7	58.7	58.7	96	57.6	0	2	112	0.00	30.164 
14:10	58.9	58.9	58.9	96	57.8	1	2	90	0.00	30.164 
14:15	58.9	58.9	58.9	96	57.8	1	3	112	0.00	30.144 
14:20	59.2	59.2	59.2	96	58.1	1	3	112	0.00	30.144 
14:25	59.3	59.3	59.3	95	57.9	1	3	112	0.00	30.144 
14:30	59.6	59.6	59.6	95	58.2	1	3	112	0.00	30.126 
14:35	60.2	60.2	60.2	95	58.8	1	2	112	0.00	30.126 
14:40	61.0	61.0	61.0	94	59.3	1	3	112	0.00	30.126 
14:45	62.1	62.1	62.1	92	59.7	1	3	112	0.00	30.110 
14:50	63.1	63.1	63.1	90	60.1	1	3	112	0.00	30.110 
14:55	64.0	64.0	64.0	89	60.7	1	3	90	0.00	30.110 
15:00	64.8	64.8	64.8	87	60.8	1	4	90	0.00	30.102 
15:05	65.3	65.3	65.3	83	60.0	1	5	90	0.00	30.102 
15:10	65.8	65.8	65.8	81	59.8	1	3	22	0.00	30.102 
15:15	66.1	66.1	66.1	83	60.8	0	3	315	0.00	30.091 
15:20	66.4	66.4	66.4	82	60.7	1	3	22	0.00	30.091 
15:25	67.1	67.1	67.1	80	60.7	1	2	225	0.00	30.091 
15:30	67.8	67.8	67.8	78	60.7	1	3	112	0.00	30.081 
15:35	68.4	68.4	68.4	77	60.9	1	4	68	0.00	30.081 
15:40	69.1	69.1	69.1	73	60.1	2	5	90	0.00	30.081 
15:45	69.6	69.6	69.6	73	60.6	1	6	90	0.00	30.073 
15:50	70.1	70.1	70.1	71	60.2	2	5	90	0.00	30.073 
15:55	70.6	70.6	70.6	68	59.5	2	5	112	0.00	30.073 
16:00	70.9	70.9	70.9	68	59.8	1	4	90	0.00	30.068 
16:05	71.5	71.5	71.5	68	60.4	1	2	90	0.00	30.068 
16:10	72.0	72.0	72.0	68	60.8	1	3	112	0.00	30.068 
16:15	72.3	72.3	72.3	65	59.9	1	5	112	0.00	30.058 
16:20	72.5	72.5	72.5	62	58.7	2	5	112	0.00	30.058 
16:25	72.8	72.8	72.8	60	58.1	2	5	112	0.00	30.058 
16:30	72.8	72.8	72.8	56	56.2	2	5	90	0.00	30.055 
16:35	73.0	73.0	73.0	56	56.4	3	6	90	0.00	30.055 
16:40	73.0	73.0	73.0	55	55.9	2	6	90	0.00	30.055 
16:45	73.2	73.2	73.2	56	56.5	2	5	90	0.00	30.054 
16:50	73.2	73.2	73.2	56	56.5	3	7	90	0.00	30.054 
16:55	73.2	73.2	73.2	54	55.5	2	6	112	0.00	30.054 
17:00	73.0	73.0	73.0	53	54.8	3	9	90	0.00	30.051 
17:05	73.0	73.0	73.0	54	55.4	3	7	90	0.00	30.051 
17:10	72.7	72.7	72.7	55	55.6	3	8	90	0.00	30.051 
17:15	72.7	72.7	72.7	57	56.6	2	8	112	0.00	30.046 
17:20	72.5	72.5	72.5	57	56.4	1	6	68	0.00	30.046 
17:25	72.3	72.3	72.3	56	55.7	2	9	90	0.00	30.046 
17:30	72.1	72.1	72.1	58	56.5	1	4	90	0.00	30.046 
17:35	71.8	71.8	71.8	59	56.7	1	3	90	0.00	30.046 
17:40	71.5	71.5	71.5	61	57.3	1	3	90	0.00	30.046 
17:45	71.1	71.1	71.1	61	57.0	1	4	112	0.00	30.039 
17:50	70.8	70.8	70.8	61	56.7	2	4	112	0.00	30.039 
17:55	70.6	70.6	70.6	61	56.5	2	4	112	0.00	30.039 
18:00	70.6	70.6	70.6	62	56.9	2	4	112	0.00	30.033 
18:05	70.4	70.4	70.4	63	57.2	1	4	90	0.00	30.033 
18:10	70.3	70.3	70.3	62	56.7	1	5	90	0.00	30.033 
18:15	70.1	70.1	70.1	63	56.9	2	6	90	0.00	30.028 
18:20	70.1	70.1	70.1	64	57.3	1	3	90	0.00	30.028 
18:25	69.9	69.9	69.9	64	57.2	1	5	112	0.00	30.028 
18:30	69.8	69.8	69.8	64	57.1	1	5	90	0.00	30.020 
18:35	69.8	69.8	69.8	64	57.1	1	6	90	0.00	30.020 
18:40	69.6	69.6	69.6	64	56.9	1	4	90	0.00	30.020 
18:45	69.4	69.4	69.4	65	57.1	1	3	112	0.00	30.024 
18:50	69.4	69.4	69.4	65	57.1	1	4	45	0.00	30.024 
18:55	69.3	69.3	69.3	65	57.0	1	3	90	0.00	30.024 
19:00	69.1	69.1	69.1	65	56.8	1	4	90	0.00	30.030 
19:05	69.1	69.1	69.1	66	57.3	1	3	248	0.00	30.030 
19:10	68.9	68.9	68.9	66	57.1	1	3	248	0.00	30.030 
19:15	68.8	68.8	68.8	67	57.4	1	2	248	0.00	30.053 
19:20	68.8	68.8	68.8	67	57.4	0	2	248	0.00	30.053 
19:25	68.6	68.6	68.6	67	57.2	0	1	248	0.00	30.053 
19:30	68.4	68.4	68.4	68	57.4	0	1	248	0.00	30.068 
19:35	68.4	68.4	68.4	68	57.4	1	2	248	0.00	30.068 
19:40	68.3	68.3	68.3	69	57.7	0	2	292	0.00	30.068 
19:45	68.1	68.1	68.1	69	57.5	0	1	292	0.00	30.066 
19:50	68.1	68.1	68.1	69	57.5	0	1	292	0.00	30.066 
19:55	67.9	67.9	67.9	69	57.3	0	2	248	0.00	30.066 
20:00	67.6	67.6	67.6	69	57.1	0	2	248	0.00	30.036 
20:05	67.8	67.8	67.8	69	57.2	2	4	248	0.00	30.036 
20:10	68.1	68.1	68.1	68	57.1	1	5	248	0.00	30.036 
20:15	68.1	68.1	68.1	69	57.5	0	3	248	0.00	29.996 
20:20	67.8	67.8	67.8	69	57.2	1	3	248	0.00	29.996 
20:25	67.4	67.4	67.4	70	57.3	1	3	248	0.00	29.996 
20:30	67.4	67.4	67.4	70	57.3	1	5	248	0.00	29.987 
20:35	67.3	67.3	67.3	70	57.2	1	3	315	0.00	29.987 
20:40	67.3	67.3	67.3	71	57.6	1	3	248	0.00	29.987 
20:45	67.3	67.3	67.3	71	57.6	2	5	248	0.00	29.978 
20:50	67.3	67.3	67.3	70	57.2	2	5	248	0.00	29.978 
20:55	67.4	67.4	67.4	70	57.3	1	4	270	0.00	29.978 
21:00	67.3	67.3	67.3	70	57.2	1	4	270	0.00	29.976 
21:05	67.3	67.3	67.3	70	57.2	1	3	248	0.00	29.976 
21:10	67.3	67.3	67.3	70	57.2	1	3	248	0.00	29.976 
21:15	67.3	67.3	67.3	71	57.6	0	2	248	0.00	29.983 
21:20	67.3	67.3	67.3	70	57.2	1	5	248	0.00	29.983 
21:25	67.4	67.4	67.4	70	57.3	1	5	248	0.00	29.983 
21:30	67.4	67.4	67.4	70	57.3	1	5	248	0.00	29.989 
21:35	67.4	67.4	67.4	70	57.3	1	5	248	0.00	29.989 
21:40	67.4	67.4	67.4	69	56.9	1	5	248	0.00	29.989 
21:45	67.4	67.4	67.4	69	56.9	1	3	248	0.00	29.986 
21:50	67.3	67.3	67.3	70	57.2	1	4	248	0.00	29.986 
21:55	67.1	67.1	67.1	69	56.6	2	4	248	0.00	29.986 
22:00	67.1	67.1	67.1	69	56.6	1	5	248	0.00	29.978 
22:05	66.9	66.9	66.9	70	56.8	1	5	248	0.00	29.978 
22:10	66.9	66.9	66.9	70	56.8	2	4	248	0.00	29.978 
22:15	66.9	66.9	66.9	70	56.8	2	5	248	0.00	29.987 
22:20	66.9	66.9	66.9	70	56.8	1	4	248	0.00	29.987 
22:25	66.9	66.9	66.9	69	56.4	1	4	248	0.00	29.987 
22:30	66.9	66.9	66.9	69	56.4	2	5	248	0.00	29.976 
22:35	66.9	66.9	66.9	69	56.4	1	4	248	0.00	29.976 
22:40	67.1	67.1	67.1	69	56.6	2	5	270	0.00	29.976 
22:45	67.3	67.3	67.3	68	56.4	2	8	248	0.00	29.971 
22:50	67.4	67.4	67.4	68	56.5	3	7	270	0.00	29.971 
22:55	67.8	67.8	67.8	66	56.0	3	11	270	0.00	29.971 
23:00	67.9	67.9	67.9	66	56.1	2	5	270	0.00	29.973 
23:05	67.9	67.9	67.9	66	56.1	2	6	248	0.00	29.973 
23:10	67.9	67.9	67.9	65	55.7	2	6	292	0.00	29.973 
23:15	68.3	68.3	68.3	65	56.1	2	4	270	0.00	29.972 
23:20	68.4	68.4	68.4	64	55.7	2	7	248	0.00	29.972 
23:25	68.8	68.8	68.8	63	55.7	2	5	248	0.00	29.972 
23:30	68.9	68.9	68.9	62	55.3	2	6	248	0.00	29.974 
23:35	69.1	69.1	69.1	62	55.5	2	4	248	0.00	29.974 
23:40	69.4	69.4	69.4	61	55.4	2	5	248	0.00	29.974 
23:45	69.6	69.6	69.6	61	55.5	3	8	248	0.00	29.979 
23:50	69.8	69.8	69.8	60	55.3	3	12	248	0.00	29.979 
23:55	69.8	69.8	69.8	60	55.3	2	6	248	0.00	29.979 

CoCoRaHS
IN-AL-39
A2 Web Hosting
Creative Commons License
GoDaddy
Look for:

loaded 2017-12-13 10:02:45 • last modified 2010-11-18 10:43:29
Privacy PolicyDisclaimer
• wx.awcolley.com is powered by PmWiki v.2002016 •
• all content (unless otherwise noted) © 2017 A W Colley